createdAt,value
2018-11-14T00:00:54.892Z,30.47
2018-11-14T00:05:58.087Z,32.03
2018-11-14T00:11:01.307Z,31.60
2018-11-14T00:16:04.488Z,33.08
2018-11-14T00:21:07.724Z,36.85
2018-11-14T00:26:10.899Z,34.58
2018-11-14T00:31:14.100Z,39.65
2018-11-14T00:36:17.320Z,35.38
2018-11-14T00:41:20.483Z,33.73
2018-11-14T00:46:23.691Z,35.13
2018-11-14T00:51:26.866Z,38.70
2018-11-14T00:56:30.092Z,39.70
2018-11-14T01:01:33.390Z,38.73
2018-11-14T01:06:36.524Z,38.92
2018-11-14T01:11:39.823Z,40.15
2018-11-14T01:16:43.062Z,38.65
2018-11-14T01:21:46.737Z,34.25
2018-11-14T01:26:49.448Z,37.28
2018-11-14T01:31:52.638Z,41.77
2018-11-14T01:36:55.815Z,34.90
2018-11-14T01:41:59.018Z,38.78
2018-11-14T01:47:02.321Z,35.63
2018-11-14T01:52:05.652Z,39.78
2018-11-14T01:57:08.860Z,37.98
2018-11-14T02:02:12.068Z,40.10
2018-11-14T02:07:15.336Z,36.10
2018-11-14T02:12:18.853Z,38.67
2018-11-14T02:17:22.063Z,38.53
2018-11-14T02:22:25.299Z,34.98
2018-11-14T02:27:28.527Z,34.33
2018-11-14T02:32:31.739Z,41.37
2018-11-14T02:37:35.004Z,39.10
2018-11-14T02:42:38.390Z,38.38
2018-11-14T02:47:41.631Z,32.40
2018-11-14T02:52:44.884Z,37.25
2018-11-14T02:57:48.261Z,39.08
2018-11-14T03:02:51.478Z,38.00
2018-11-14T03:07:54.707Z,43.70
2018-11-14T03:12:57.908Z,42.80
2018-11-14T03:18:01.109Z,40.25
2018-11-14T03:23:04.324Z,37.88
2018-11-14T03:28:07.520Z,38.60
2018-11-14T03:33:10.709Z,40.90
2018-11-14T03:38:13.909Z,38.28
2018-11-14T03:43:17.083Z,39.35
2018-11-14T03:48:20.276Z,38.30
2018-11-14T03:53:23.469Z,35.75
2018-11-14T03:58:26.819Z,37.05
2018-11-14T04:03:29.853Z,38.75
2018-11-14T04:08:33.068Z,38.80
2018-11-14T04:13:36.248Z,37.70
2018-11-14T04:18:39.448Z,37.37
2018-11-14T04:23:47.373Z,36.30
2018-11-14T04:28:50.563Z,38.17
2018-11-14T04:33:53.763Z,38.65
2018-11-14T04:38:56.968Z,37.35
2018-11-14T04:44:00.191Z,37.58
2018-11-14T04:49:03.659Z,36.70
2018-11-14T04:54:06.874Z,38.95
2018-11-14T04:59:10.064Z,36.50
2018-11-14T05:04:13.276Z,36.20
2018-11-14T05:09:16.527Z,31.10
2018-11-14T05:14:19.755Z,34.13
2018-11-14T05:19:23.175Z,36.30
2018-11-14T05:24:26.484Z,33.98
2018-11-14T05:29:29.699Z,39.05
2018-11-14T05:34:33.019Z,38.60
2018-11-14T05:39:36.286Z,35.58
2018-11-14T05:44:39.471Z,36.93
2018-11-14T05:49:42.775Z,34.45
2018-11-14T05:54:46.004Z,31.80
2018-11-14T05:59:49.227Z,31.68
2018-11-14T06:04:52.446Z,33.67
2018-11-14T06:09:55.698Z,33.85
2018-11-14T06:14:58.935Z,30.52
2018-11-14T06:20:02.165Z,33.38
2018-11-14T06:25:33.907Z,32.20
2018-11-14T06:30:37.646Z,35.17
2018-11-14T06:35:40.891Z,30.30
2018-11-14T06:40:44.129Z,36.05
2018-11-14T06:45:47.350Z,39.38
2018-11-14T06:50:50.569Z,37.67
2018-11-14T06:55:53.829Z,36.68
2018-11-14T07:00:57.088Z,37.42
2018-11-14T07:06:00.439Z,30.20
2018-11-14T07:11:03.592Z,38.90
2018-11-14T07:16:06.721Z,36.20
2018-11-14T07:21:09.941Z,36.50
2018-11-14T07:26:13.163Z,33.70
2018-11-14T07:31:16.375Z,42.97
2018-11-14T07:36:19.611Z,42.50
2018-11-14T07:41:26.196Z,24.32
2018-11-14T07:46:30.516Z,19.23
2018-11-14T07:51:33.751Z,19.75
2018-11-14T07:56:36.978Z,15.63
2018-11-14T08:01:40.207Z,15.90
2018-11-14T08:06:43.824Z,15.13
2018-11-14T08:11:47.031Z,13.00
2018-11-14T08:16:50.331Z,14.00
2018-11-14T08:21:53.575Z,12.70
2018-11-14T08:26:56.797Z,14.13
2018-11-14T08:32:00.035Z,12.82
2018-11-14T08:37:03.271Z,13.65
2018-11-14T08:42:06.508Z,15.97
2018-11-14T08:47:09.724Z,13.48
2018-11-14T08:52:12.975Z,13.05
2018-11-14T08:57:16.196Z,10.83
2018-11-14T09:02:19.455Z,12.53
2018-11-14T09:07:22.692Z,12.20
2018-11-14T09:12:25.928Z,12.65
2018-11-14T09:17:29.135Z,11.88
2018-11-14T09:22:32.626Z,10.90
2018-11-14T09:27:35.856Z,11.68
2018-11-14T09:32:39.070Z,11.13
2018-11-14T09:37:42.303Z,12.18
2018-11-14T09:42:45.519Z,11.97
2018-11-14T09:47:48.883Z,10.05
2018-11-14T09:52:54.340Z,8.50
2018-11-14T09:57:57.571Z,10.55
2018-11-14T10:03:08.627Z,12.10
2018-11-14T10:08:11.856Z,12.82
2018-11-14T10:13:15.047Z,10.93
2018-11-14T10:18:18.291Z,10.00
2018-11-14T10:23:21.471Z,12.57
2018-11-14T10:28:24.715Z,9.70
2018-11-14T10:33:27.927Z,10.27
2018-11-14T10:38:31.142Z,9.58
2018-11-14T10:43:34.445Z,12.43
2018-11-14T10:48:37.663Z,13.28
2018-11-14T10:53:40.867Z,13.77
2018-11-14T10:58:44.086Z,13.05
2018-11-14T11:03:52.635Z,11.37
2018-11-14T11:09:01.208Z,14.13
2018-11-14T11:14:09.823Z,14.50
2018-11-14T11:19:13.707Z,11.48
2018-11-14T11:24:18.231Z,12.47
2018-11-14T11:29:21.463Z,13.30
2018-11-14T11:34:24.667Z,14.03
2018-11-14T11:39:27.897Z,17.23
2018-11-14T11:44:31.196Z,15.45
2018-11-14T11:49:34.415Z,12.63
2018-11-14T11:54:37.623Z,12.80
2018-11-14T11:59:40.893Z,13.32
2018-11-14T12:04:43.995Z,13.33
2018-11-14T12:09:47.223Z,15.65
2018-11-14T12:14:50.427Z,12.55
2018-11-14T12:19:53.642Z,16.33
2018-11-14T12:24:56.872Z,15.10
2018-11-14T12:30:00.197Z,19.15
2018-11-14T12:35:03.302Z,14.95
2018-11-14T12:40:07.263Z,16.48
2018-11-14T12:45:12.337Z,13.30
2018-11-14T12:50:15.451Z,13.60
2018-11-14T12:55:19.165Z,14.25
2018-11-14T13:00:22.599Z,13.55
2018-11-14T13:05:25.843Z,16.25
2018-11-14T13:10:29.054Z,16.30
2018-11-14T13:15:32.259Z,13.98
2018-11-14T13:20:35.463Z,12.78
2018-11-14T13:25:38.647Z,14.07
2018-11-14T13:30:41.879Z,12.53
2018-11-14T13:35:45.487Z,14.60
2018-11-14T13:40:48.715Z,15.68
2018-11-14T13:45:51.923Z,12.53
2018-11-14T13:50:55.304Z,14.70
2018-11-14T13:55:58.321Z,15.97
2018-11-14T14:01:01.534Z,13.38
2018-11-14T14:06:04.911Z,13.85
2018-11-14T14:11:08.127Z,18.33
2018-11-14T14:16:11.335Z,17.20
2018-11-14T14:21:14.508Z,16.35
2018-11-14T14:26:17.722Z,16.00
2018-11-14T14:31:20.920Z,13.18
2018-11-14T14:36:24.123Z,15.45
2018-11-14T14:41:27.312Z,13.60
2018-11-14T14:46:30.630Z,12.58
2018-11-14T14:51:33.847Z,11.48
2018-11-14T14:56:37.045Z,11.03
2018-11-14T15:01:40.268Z,12.05
2018-11-14T15:06:43.475Z,14.30
2018-11-14T15:11:46.678Z,14.47
2018-11-14T15:16:49.887Z,12.43
2018-11-14T15:21:53.083Z,13.90
2018-11-14T15:26:56.319Z,12.67
2018-11-14T15:31:59.522Z,16.60
2018-11-14T15:37:03.595Z,17.40
2018-11-14T15:42:06.960Z,14.47
2018-11-14T15:47:10.159Z,14.10
2018-11-14T15:52:13.379Z,12.93
2018-11-14T15:57:16.598Z,16.10
2018-11-14T16:02:20.607Z,17.67
2018-11-14T16:07:23.873Z,15.95
2018-11-14T16:12:27.380Z,19.07
2018-11-14T16:17:30.683Z,20.05
2018-11-14T16:22:33.983Z,20.60
2018-11-14T16:27:37.199Z,20.00
2018-11-14T16:32:40.772Z,19.70
2018-11-14T16:37:44.291Z,18.47
2018-11-14T16:42:48.038Z,22.52
2018-11-14T16:47:51.402Z,16.93
2018-11-14T16:52:54.764Z,22.15
2018-11-14T16:57:58.251Z,21.87
2018-11-14T17:03:01.519Z,27.20
2018-11-14T17:08:04.977Z,24.77
2018-11-14T17:13:08.180Z,26.62
2018-11-14T17:18:11.473Z,31.68
2018-11-14T17:23:14.794Z,31.42
2018-11-14T17:28:19.228Z,28.77
2018-11-14T17:33:22.569Z,31.23
2018-11-14T17:38:25.731Z,33.15
2018-11-14T17:43:28.933Z,29.12
2018-11-14T17:48:32.143Z,25.48
2018-11-14T17:53:35.342Z,33.90
2018-11-14T17:58:38.539Z,27.37
2018-11-14T18:03:41.755Z,32.80
2018-11-14T18:08:45.131Z,32.38
2018-11-14T18:13:48.372Z,47.03
2018-11-14T18:18:51.628Z,36.68
2018-11-14T18:23:54.955Z,36.53
2018-11-14T18:28:58.182Z,40.90
2018-11-14T18:34:01.427Z,37.60
2018-11-14T18:39:09.236Z,26.65
2018-11-14T18:44:12.428Z,29.73
2018-11-14T18:49:15.635Z,29.13
2018-11-14T18:54:18.842Z,26.77
2018-11-14T18:59:22.109Z,31.00
2018-11-14T19:04:25.339Z,36.45
2018-11-14T19:09:28.583Z,39.73
2018-11-14T19:14:31.777Z,34.67
2018-11-14T19:19:34.975Z,26.33
2018-11-14T19:24:38.306Z,34.80
2018-11-14T19:29:41.438Z,22.85
2018-11-14T19:34:44.635Z,20.32
2018-11-14T19:39:47.854Z,20.43
2018-11-14T19:44:51.035Z,24.32
2018-11-14T19:49:54.235Z,23.42
2018-11-14T19:54:57.433Z,25.43
2018-11-14T20:00:00.879Z,21.53
2018-11-14T20:05:04.295Z,20.10
2018-11-14T20:10:10.153Z,19.20
2018-11-14T20:15:14.601Z,17.40
2018-11-14T20:20:19.331Z,18.05
2018-11-14T20:25:22.551Z,29.45
2018-11-14T20:30:27.129Z,32.78
2018-11-14T20:35:30.278Z,32.10
2018-11-14T20:40:33.503Z,42.03
2018-11-14T20:45:36.738Z,42.10
2018-11-14T20:50:39.943Z,39.47
2018-11-14T20:55:43.195Z,31.97
2018-11-14T21:00:46.399Z,30.27
2018-11-14T21:05:49.782Z,29.23
2018-11-14T21:10:53.019Z,26.00
2018-11-14T21:15:56.218Z,23.38
2018-11-14T21:20:59.428Z,25.52
2018-11-14T21:26:02.648Z,38.93
2018-11-14T21:31:05.884Z,23.83
2018-11-14T21:36:09.205Z,25.83
2018-11-14T21:41:12.407Z,27.93
2018-11-14T21:46:15.651Z,21.77
2018-11-14T21:51:18.868Z,26.37
2018-11-14T21:56:22.083Z,30.30
2018-11-14T22:01:25.291Z,22.02
2018-11-14T22:06:28.490Z,21.50
2018-11-14T22:11:31.704Z,21.15
2018-11-14T22:16:34.915Z,22.10
2018-11-14T22:21:38.100Z,18.30
2018-11-14T22:26:41.299Z,22.00
2018-11-14T22:31:44.491Z,19.23
2018-11-14T22:36:47.793Z,15.83
2018-11-14T22:41:51.011Z,17.48
2018-11-14T22:46:54.583Z,16.35
2018-11-14T22:51:57.815Z,18.17
2018-11-14T22:57:01.023Z,21.57
2018-11-14T23:02:04.519Z,25.15
2018-11-14T23:07:07.751Z,33.80
2018-11-14T23:12:10.963Z,29.30
2018-11-14T23:17:14.287Z,25.13
2018-11-14T23:22:17.515Z,22.10
2018-11-14T23:27:20.707Z,19.98
2018-11-14T23:32:23.923Z,23.77
2018-11-14T23:37:27.139Z,23.30
2018-11-14T23:42:30.370Z,23.35
2018-11-14T23:47:33.609Z,22.22
2018-11-14T23:52:36.843Z,22.10
2018-11-14T23:57:40.439Z,22.40
